createdAt,value
2022-08-23T00:02:29.109Z,22.70
2022-08-23T00:07:28.153Z,22.70
2022-08-23T00:12:29.586Z,22.70
2022-08-23T00:17:34.380Z,22.60
2022-08-23T00:22:33.177Z,22.60
2022-08-23T00:27:33.494Z,22.50
2022-08-23T00:32:34.424Z,22.40
2022-08-23T00:37:34.080Z,22.40
2022-08-23T00:42:53.547Z,22.40
2022-08-23T00:47:52.168Z,22.40
2022-08-23T00:52:58.684Z,22.40
2022-08-23T00:57:59.083Z,22.30
2022-08-23T01:02:58.049Z,22.30
2022-08-23T01:08:00.406Z,22.30
2022-08-23T01:13:03.843Z,22.20
2022-08-23T01:18:05.724Z,22.20
2022-08-23T01:23:10.262Z,22.10
2022-08-23T01:28:10.025Z,22.10
2022-08-23T01:33:08.927Z,22.10
2022-08-23T01:38:08.854Z,22.10
2022-08-23T01:43:09.328Z,22.10
2022-08-23T01:48:09.065Z,22.00
2022-08-23T01:53:08.172Z,22.00
2022-08-23T01:58:08.109Z,22.00
2022-08-23T02:03:09.598Z,22.00
2022-08-23T02:08:31.878Z,22.00
2022-08-23T02:13:31.560Z,21.90
2022-08-23T02:18:32.891Z,21.90
2022-08-23T02:23:31.468Z,21.90
2022-08-23T02:28:29.711Z,21.80
2022-08-23T02:33:30.315Z,21.80
2022-08-23T02:38:28.744Z,21.80
2022-08-23T02:43:26.990Z,21.80
2022-08-23T02:48:25.275Z,21.80
2022-08-23T02:53:35.388Z,21.70
2022-08-23T02:58:37.226Z,21.70
2022-08-23T03:03:36.559Z,21.70
2022-08-23T03:08:38.466Z,21.70
2022-08-23T03:13:36.745Z,21.60
2022-08-23T03:18:35.183Z,21.60
2022-08-23T03:23:34.027Z,21.60
2022-08-23T03:28:35.838Z,21.60
2022-08-23T03:33:35.327Z,21.50
2022-08-23T03:38:35.417Z,21.50
2022-08-23T03:43:39.342Z,21.40
2022-08-23T03:48:37.888Z,21.40
2022-08-23T03:53:36.933Z,21.40
2022-08-23T03:58:37.964Z,21.40
2022-08-23T04:03:36.434Z,21.30
2022-08-23T04:08:36.492Z,21.30
2022-08-23T04:13:39.186Z,21.20
2022-08-23T04:18:37.847Z,21.20
2022-08-23T04:23:39.532Z,21.20
2022-08-23T04:28:40.307Z,21.10
2022-08-23T04:33:40.272Z,21.10
2022-08-23T04:38:41.165Z,21.00
2022-08-23T04:43:45.361Z,21.00
2022-08-23T04:48:46.200Z,21.00
2022-08-23T04:53:45.504Z,21.00
2022-08-23T04:59:03.336Z,20.90
2022-08-23T05:04:03.227Z,20.90
2022-08-23T05:09:02.783Z,20.90
2022-08-23T05:14:03.611Z,20.90
2022-08-23T05:19:02.394Z,20.90
2022-08-23T05:24:03.726Z,21.00
2022-08-23T05:29:05.230Z,21.00
2022-08-23T05:34:10.092Z,21.10
2022-08-23T05:39:21.193Z,21.10
2022-08-23T05:44:36.238Z,21.20
2022-08-23T05:49:37.484Z,21.30
2022-08-23T05:54:36.518Z,21.40
2022-08-23T05:59:54.657Z,21.50
2022-08-23T06:04:57.151Z,21.50
2022-08-23T06:09:56.093Z,21.70
2022-08-23T06:14:55.840Z,21.80
2022-08-23T06:19:54.625Z,22.00
2022-08-23T06:24:58.355Z,22.10
2022-08-23T06:30:16.866Z,22.20
2022-08-23T06:35:38.320Z,22.40
2022-08-23T06:40:38.561Z,22.50
2022-08-23T06:46:13.283Z,22.60
2022-08-23T06:51:12.916Z,22.70
2022-08-23T06:56:28.392Z,22.90
2022-08-23T07:01:47.566Z,23.20
2022-08-23T07:06:56.699Z,23.40
2022-08-23T07:11:55.320Z,23.60
2022-08-23T07:16:56.855Z,23.80
2022-08-23T07:21:55.327Z,24.00
2022-08-23T07:26:54.076Z,24.20
2022-08-23T07:31:56.798Z,24.30
2022-08-23T07:36:56.093Z,24.40
2022-08-23T07:41:59.458Z,24.40
2022-08-23T07:47:00.775Z,24.60
2022-08-23T07:52:00.384Z,24.80
2022-08-23T07:56:59.122Z,25.00
2022-08-23T08:02:23.295Z,25.40
2022-08-23T08:07:22.617Z,25.60
2022-08-23T08:12:30.158Z,25.70
2022-08-23T08:17:33.827Z,25.70
2022-08-23T08:22:49.922Z,25.80
2022-08-23T08:28:33.616Z,25.90
2022-08-23T08:33:34.355Z,26.10
2022-08-23T08:38:36.782Z,26.40
2022-08-23T08:43:51.933Z,26.50
2022-08-23T08:48:56.598Z,26.80
2022-08-23T08:53:56.859Z,26.90
2022-08-23T08:59:12.504Z,27.10
2022-08-23T09:04:12.605Z,27.50
2022-08-23T09:09:29.437Z,27.70
2022-08-23T09:14:57.533Z,27.90
2022-08-23T09:20:01.117Z,27.90
2022-08-23T09:25:00.031Z,27.90
2022-08-23T09:30:08.632Z,27.90
2022-08-23T09:35:14.405Z,28.10
2022-08-23T09:40:20.909Z,28.40
2022-08-23T09:45:29.770Z,28.60
2022-08-23T09:50:39.016Z,28.70
2022-08-23T09:55:40.226Z,28.90
2022-08-23T10:00:39.215Z,28.90
2022-08-23T10:05:42.588Z,29.10
2022-08-23T10:10:51.792Z,29.30
2022-08-23T10:16:08.658Z,29.60
2022-08-23T10:21:24.192Z,29.80
2022-08-23T10:26:31.564Z,30.10
2022-08-23T10:31:39.950Z,30.10
2022-08-23T10:36:53.941Z,30.20
2022-08-23T10:41:59.981Z,30.20
2022-08-23T10:47:11.608Z,30.20
2022-08-23T10:52:20.703Z,30.30
2022-08-23T10:57:21.834Z,30.40
2022-08-23T11:02:36.651Z,30.50
2022-08-23T11:08:07.343Z,30.60
2022-08-23T11:13:20.801Z,30.60
2022-08-23T11:18:42.855Z,30.80
2022-08-23T11:23:51.128Z,30.80
2022-08-23T11:28:51.423Z,30.90
2022-08-23T11:34:01.114Z,31.00
2022-08-23T11:39:11.719Z,31.10
2022-08-23T11:44:28.416Z,31.20
2022-08-23T11:49:48.642Z,31.30
2022-08-23T11:55:05.387Z,31.30
2022-08-23T12:00:17.616Z,31.40
2022-08-23T12:05:33.429Z,31.40
2022-08-23T12:11:01.536Z,31.50
2022-08-23T12:16:16.290Z,31.60
2022-08-23T12:21:22.250Z,31.60
2022-08-23T12:26:27.653Z,31.70
2022-08-23T12:31:34.843Z,31.70
2022-08-23T12:36:37.662Z,31.70
2022-08-23T12:41:53.988Z,31.90
2022-08-23T12:46:53.436Z,32.00
2022-08-23T12:51:53.518Z,32.00
2022-08-23T12:56:55.863Z,32.00
2022-08-23T13:01:54.395Z,32.10
2022-08-23T13:06:57.057Z,32.10
2022-08-23T13:11:59.035Z,32.20
2022-08-23T13:16:58.857Z,32.30
2022-08-23T13:22:14.311Z,32.40
2022-08-23T13:27:22.548Z,32.50
2022-08-23T13:32:32.839Z,32.50
2022-08-23T13:37:33.405Z,32.50
2022-08-23T13:42:42.777Z,32.50
2022-08-23T13:47:49.641Z,32.30
2022-08-23T13:53:11.522Z,32.30
2022-08-23T13:58:11.412Z,32.30
2022-08-23T14:03:09.686Z,32.30
2022-08-23T14:08:09.658Z,32.30
2022-08-23T14:13:10.945Z,32.20
2022-08-23T14:18:10.471Z,32.10
2022-08-23T14:23:12.020Z,32.10
2022-08-23T14:28:13.310Z,31.90
2022-08-23T14:33:11.599Z,31.90
2022-08-23T14:38:13.437Z,31.80
2022-08-23T14:43:13.310Z,31.70
2022-08-23T14:48:11.645Z,31.60
2022-08-23T14:53:10.732Z,31.50
2022-08-23T14:58:09.072Z,31.30
2022-08-23T15:03:12.020Z,31.00
2022-08-23T15:08:10.668Z,30.80
2022-08-23T15:13:27.041Z,30.60
2022-08-23T15:18:28.979Z,30.40
2022-08-23T15:23:28.391Z,30.50
2022-08-23T15:28:27.873Z,30.40
2022-08-23T15:33:30.833Z,30.40
2022-08-23T15:38:32.452Z,30.40
2022-08-23T15:43:34.450Z,30.30
2022-08-23T15:48:42.600Z,30.30
2022-08-23T15:53:42.940Z,30.20
2022-08-23T15:58:42.118Z,30.10
2022-08-23T16:03:43.776Z,30.10
2022-08-23T16:08:45.265Z,30.10
2022-08-23T16:13:45.854Z,30.10
2022-08-23T16:18:45.816Z,30.10
2022-08-23T16:23:46.896Z,29.90
2022-08-23T16:28:46.054Z,29.70
2022-08-23T16:33:47.794Z,29.50
2022-08-23T16:38:46.597Z,29.50
2022-08-23T16:43:45.211Z,29.40
2022-08-23T16:48:43.941Z,29.40
2022-08-23T16:53:43.569Z,29.40
2022-08-23T16:58:52.725Z,29.30
2022-08-23T17:03:51.065Z,29.20
2022-08-23T17:08:51.051Z,29.20
2022-08-23T17:13:49.323Z,29.10
2022-08-23T17:18:47.817Z,29.00
2022-08-23T17:23:54.024Z,28.90
2022-08-23T17:28:52.274Z,28.90
2022-08-23T17:33:50.552Z,28.80
2022-08-23T17:38:48.961Z,28.80
2022-08-23T17:43:48.929Z,28.70
2022-08-23T17:48:47.931Z,28.70
2022-08-23T17:53:46.805Z,28.70
2022-08-23T17:58:45.308Z,28.60
2022-08-23T18:03:45.185Z,28.50
2022-08-23T18:08:43.520Z,28.50
2022-08-23T18:13:42.023Z,28.40
2022-08-23T18:18:40.791Z,28.30
2022-08-23T18:23:40.738Z,28.20
2022-08-23T18:28:39.407Z,28.20
2022-08-23T18:33:47.119Z,28.10
2022-08-23T18:38:47.521Z,28.00
2022-08-23T18:43:46.826Z,27.80
2022-08-23T18:48:53.304Z,27.70
2022-08-23T18:53:53.780Z,27.60
2022-08-23T18:58:53.822Z,27.50
2022-08-23T19:03:52.447Z,27.40
2022-08-23T19:08:51.825Z,27.30
2022-08-23T19:13:51.561Z,27.10
2022-08-23T19:18:50.956Z,27.00
2022-08-23T19:23:50.906Z,26.80
2022-08-23T19:28:51.123Z,26.80
2022-08-23T19:33:51.002Z,26.70
2022-08-23T19:38:49.307Z,26.60
2022-08-23T19:43:47.607Z,26.50
2022-08-23T19:48:48.766Z,26.40
2022-08-23T19:54:04.760Z,26.30
2022-08-23T19:59:13.797Z,26.20
2022-08-23T20:04:13.552Z,26.10
2022-08-23T20:09:11.965Z,26.00
2022-08-23T20:14:10.318Z,25.90
2022-08-23T20:19:11.249Z,25.80
2022-08-23T20:24:12.569Z,25.80
2022-08-23T20:29:12.788Z,25.70
2022-08-23T20:34:11.051Z,25.60
2022-08-23T20:39:12.442Z,25.50
2022-08-23T20:44:10.660Z,25.50
2022-08-23T20:49:09.266Z,25.40
2022-08-23T20:54:08.627Z,25.30
2022-08-23T20:59:09.737Z,25.20
2022-08-23T21:04:08.055Z,25.20
2022-08-23T21:09:06.533Z,25.10
2022-08-23T21:14:06.745Z,25.10
2022-08-23T21:19:07.120Z,25.10
2022-08-23T21:24:06.118Z,25.00
2022-08-23T21:29:05.809Z,25.00
2022-08-23T21:34:05.822Z,24.90
2022-08-23T21:39:04.356Z,24.80
2022-08-23T21:44:04.309Z,24.70
2022-08-23T21:49:02.823Z,24.60
2022-08-23T21:54:03.577Z,24.60
2022-08-23T21:59:04.058Z,24.50
2022-08-23T22:04:02.468Z,24.40
2022-08-23T22:09:02.339Z,24.30
2022-08-23T22:14:00.751Z,24.20
2022-08-23T22:19:00.018Z,24.10
2022-08-23T22:23:58.295Z,24.10
2022-08-23T22:28:58.126Z,24.00
2022-08-23T22:33:56.399Z,23.90
2022-08-23T22:38:56.297Z,23.90
2022-08-23T22:43:54.822Z,24.00
2022-08-23T22:48:54.813Z,24.00
2022-08-23T22:53:55.995Z,24.00
2022-08-23T22:58:54.731Z,24.00
2022-08-23T23:03:55.704Z,23.90
2022-08-23T23:08:55.199Z,23.90
2022-08-23T23:13:53.818Z,23.90
2022-08-23T23:19:06.504Z,23.80
2022-08-23T23:24:07.091Z,23.70
2022-08-23T23:29:05.443Z,23.70
2022-08-23T23:34:03.872Z,23.60
2022-08-23T23:39:03.044Z,23.60
2022-08-23T23:44:02.958Z,23.60
2022-08-23T23:49:01.374Z,23.50
2022-08-23T23:54:01.116Z,23.40
2022-08-23T23:59:00.149Z,23.40
